Time;durP1;ratioP1;P1;durP2;ratioP2;P2;SDS_P1;SDS_P2;PMS_P1;PMS_P2;Temp;Humidity;BMP_temperature;BMP_pressure;BME280_temperature;BME280_humidity;BME280_pressure;Samples;Min_cycle;Max_cycle;Signal;HPM_P1;HPM_P2
2022/06/23 00:02:12;;;;;;;7.72;3.22;;;;;;;18.11;51.81;101081.44;4991426;28;20026;-77
2022/06/23 00:04:42;;;;;;;6.35;3.47;;;;;;;18.09;52.00;101081.63;4980095;28;20411;-77
2022/06/23 00:07:17;;;;;;;7.05;3.75;;;;;;;18.08;52.28;101082.59;4985373;28;20037;-78
2022/06/23 00:09:45;;;;;;;9.15;3.45;;;;;;;18.06;52.58;101081.94;4990437;28;20034;-77
2022/06/23 00:12:36;;;;;;;6.03;3.60;;;;;;;18.06;52.27;101086.47;4990447;28;20034;-78
2022/06/23 00:15:01;;;;;;;9.55;3.80;;;;;;;17.99;53.55;101075.53;4988291;28;20027;-78
2022/06/23 00:17:27;;;;;;;8.03;4.17;;;;;;;17.96;54.08;101077.69;4975758;28;20034;-78
2022/06/23 00:19:54;;;;;;;8.80;3.97;;;;;;;17.92;54.09;101074.50;4983154;28;20037;-78
2022/06/23 00:22:23;;;;;;;10.82;4.22;;;;;;;17.89;54.35;101074.81;4992542;28;20483;-78
2022/06/23 00:24:53;;;;;;;10.20;4.30;;;;;;;17.86;54.93;101075.91;4991020;28;20033;-78
2022/06/23 00:27:21;;;;;;;7.72;4.20;;;;;;;17.86;54.79;101067.03;4983394;28;20057;-77
2022/06/23 00:29:47;;;;;;;7.20;3.92;;;;;;;17.83;55.53;101068.16;4981248;28;20073;-78
2022/06/23 00:32:14;;;;;;;7.88;4.43;;;;;;;17.80;55.83;101071.16;4987024;28;20029;-78
2022/06/23 00:34:43;;;;;;;8.73;4.47;;;;;;;17.76;56.03;101080.56;4975197;28;20030;-78
2022/06/23 00:37:18;;;;;;;10.25;4.80;;;;;;;17.73;55.95;101079.03;4982186;28;20050;-78
2022/06/23 00:40:04;;;;;;;9.65;4.35;;;;;;;17.76;55.19;101085.94;4991602;28;20391;-78
2022/06/23 00:42:49;;;;;;;9.23;4.90;;;;;;;17.69;56.32;101077.66;4976328;28;20443;-79
2022/06/23 00:45:43;;;;;;;10.60;4.80;;;;;;;17.65;56.68;101078.13;4977419;28;20034;-78
2022/06/23 00:48:18;;;;;;;8.38;4.68;;;;;;;17.63;57.41;101077.47;4989407;28;20027;-78
2022/06/23 00:50:48;;;;;;;9.98;5.00;;;;;;;17.57;57.79;101074.41;4979438;28;20507;-78
2022/06/23 00:53:43;;;;;;;8.60;4.80;;;;;;;17.59;56.76;101068.88;4989067;28;20438;-78
2022/06/23 00:56:17;;;;;;;6.50;5.10;;;;;;;17.53;58.50;101066.81;4978215;28;20023;-78
2022/06/23 00:58:51;;;;;;;15.40;5.38;;;;;;;17.48;58.67;101053.84;4979745;28;20026;-78
2022/06/23 01:01:28;;;;;;;10.63;6.07;;;;;;;17.43;59.66;101058.03;4987454;28;20041;-78
2022/06/23 01:04:19;;;;;;;7.90;4.82;;;;;;;17.46;58.19;101063.91;5065201;23;20086;-54
2022/06/23 01:06:51;;;;;;;8.15;5.35;;;;;;;17.39;59.92;101058.34;5015614;28;20048;-54
2022/06/23 01:09:32;;;;;;;10.77;5.95;;;;;;;17.35;59.92;101048.94;5014793;28;20026;-56
2022/06/23 01:12:23;;;;;;;10.20;6.30;;;;;;;17.32;60.43;101056.44;5012166;28;20034;-56
2022/06/23 01:14:58;;;;;;;6.90;5.38;;;;;;;17.28;60.82;101047.00;5014132;28;20058;-56
2022/06/23 01:17:50;;;;;;;10.98;6.15;;;;;;;17.31;60.07;101057.44;5003985;28;20434;-56
2022/06/23 01:20:24;;;;;;;8.90;5.80;;;;;;;17.27;60.98;101056.06;5010611;28;20061;-53
2022/06/23 01:22:49;;;;;;;7.50;5.63;;;;;;;17.24;61.85;101061.75;5008250;28;20026;-54
2022/06/23 01:25:40;;;;;;;11.53;6.00;;;;;;;17.27;61.00;101061.41;5013222;28;20030;-54
2022/06/23 01:28:15;;;;;;;10.63;6.00;;;;;;;17.24;62.43;101062.59;5012022;28;20280;-53
2022/06/23 01:31:05;;;;;;;10.57;6.47;;;;;;;17.22;61.71;101061.91;4996607;28;20113;-53
2022/06/23 01:33:41;;;;;;;9.95;6.22;;;;;;;17.18;62.82;101060.53;4996656;28;20116;-54
2022/06/23 01:36:23;;;;;;;9.20;6.30;;;;;;;17.16;63.45;101049.94;5003535;28;20037;-54
2022/06/23 01:39:01;;;;;;;15.70;6.88;;;;;;;17.13;63.05;101058.28;5011141;28;20540;-56
2022/06/23 01:41:38;;;;;;;14.88;7.13;;;;;;;17.13;63.63;101063.66;5014698;28;20056;-55
2022/06/23 01:44:42;;;;;;;14.30;6.80;;;;;;;17.11;62.97;101059.47;5010785;28;20033;-54
2022/06/23 01:47:19;;;;;;;10.20;6.68;;;;;;;17.01;64.96;101055.00;5010609;28;20385;-55
2022/06/23 01:49:46;;;;;;;10.77;6.30;;;;;;;17.01;65.00;101051.50;5001645;28;20391;-55
2022/06/23 01:52:17;;;;;;;12.45;6.63;;;;;;;16.97;64.81;101059.03;5005463;28;20110;-54
2022/06/23 01:54:44;;;;;;;13.55;6.95;;;;;;;16.98;65.58;101059.84;5014413;28;20417;-55
2022/06/23 01:57:34;;;;;;;11.77;7.45;;;;;;;16.98;64.69;101052.63;4994089;28;20034;-56
2022/06/23 02:00:17;;;;;;;10.70;7.07;;;;;;;16.96;64.28;101056.50;5004243;28;20104;-54
2022/06/23 02:02:56;;;;;;;10.48;6.85;;;;;;;16.92;66.19;101044.38;5000723;28;20062;-55
2022/06/23 02:05:39;;;;;;;15.23;7.60;;;;;;;16.94;65.11;101058.50;4984525;28;20054;-54
2022/06/23 02:08:49;;;;;;;11.98;7.25;;;;;;;16.90;65.92;101051.72;4990723;28;20104;-54
2022/06/23 02:11:38;;;;;;;10.63;7.05;;;;;;;16.93;65.42;101046.06;4914243;29;20072;-55
2022/06/23 02:14:11;;;;;;;13.35;8.02;;;;;;;16.86;66.93;101045.84;4916764;29;20392;-54
2022/06/23 02:16:43;;;;;;;11.77;7.35;;;;;;;16.86;66.14;101045.00;4967905;28;20508;-54
2022/06/23 02:19:32;;;;;;;10.68;7.28;;;;;;;16.85;66.57;101054.03;4993700;28;20026;-53
2022/06/23 02:22:15;;;;;;;12.20;7.77;;;;;;;16.84;66.06;101042.44;4989474;28;20383;-53
2022/06/23 02:25:03;;;;;;;12.18;7.97;;;;;;;16.80;67.00;101044.59;4991633;28;20035;-53
2022/06/23 02:27:44;;;;;;;11.83;7.80;;;;;;;16.77;67.25;101041.34;4994719;28;20042;-54
2022/06/23 02:30:34;;;;;;;14.57;7.82;;;;;;;16.71;67.61;101039.28;4995776;28;20296;-54
2022/06/23 02:33:17;;;;;;;13.55;8.60;;;;;;;16.69;68.22;101041.28;4990482;28;20096;-54
2022/06/23 02:35:51;;;;;;;14.80;7.97;;;;;;;16.65;68.36;101035.38;4995302;28;20062;-53
2022/06/23 02:38:25;;;;;;;12.23;7.88;;;;;;;16.62;68.83;101049.06;4989868;28;20065;-53
2022/06/23 02:40:56;;;;;;;13.43;8.35;;;;;;;16.62;68.50;101044.56;4994983;28;20125;-53
2022/06/23 02:43:48;;;;;;;11.18;7.90;;;;;;;16.65;67.46;101049.63;4999084;28;20093;-55
2022/06/23 02:46:46;;;;;;;11.82;8.25;;;;;;;16.63;69.12;101042.72;4988339;28;20034;-53
2022/06/23 02:49:19;;;;;;;15.40;8.65;;;;;;;16.62;68.75;101041.91;4979485;28;20046;-53
2022/06/23 02:52:13;;;;;;;13.13;7.95;;;;;;;16.64;67.45;101044.44;4997687;28;20085;-54
2022/06/23 02:55:23;;;;;;;11.00;7.80;;;;;;;16.64;67.32;101036.38;4984004;28;20038;-53
2022/06/23 02:57:59;;;;;;;14.70;9.15;;;;;;;16.58;69.28;101031.63;4980098;28;20490;-54
2022/06/23 03:00:34;;;;;;;13.90;8.23;;;;;;;16.53;68.82;101026.72;4984214;28;20081;-54
2022/06/23 03:03:23;;;;;;;12.25;8.05;;;;;;;16.57;67.86;101030.78;4995623;28;20035;-53
2022/06/23 03:05:57;;;;;;;14.07;8.68;;;;;;;16.49;69.18;101033.38;4997805;28;20069;-55
2022/06/23 03:08:39;;;;;;;19.90;8.73;;;;;;;16.48;68.62;101025.50;4991276;28;20054;-55
2022/06/23 03:14:20;;;;;;;12.27;8.15;;;;;;;16.42;68.92;101016.19;4983956;28;20078;-54
2022/06/23 03:16:53;;;;;;;13.57;8.40;;;;;;;16.38;69.08;101006.78;4988966;28;20030;-53
2022/06/23 03:19:29;;;;;;;12.05;8.50;;;;;;;16.39;68.60;101011.16;5001675;28;20023;-55
2022/06/23 03:22:15;;;;;;;12.55;7.85;;;;;;;16.34;68.62;101000.88;4994907;28;20434;-55
2022/06/23 03:25:19;;;;;;;13.98;8.35;;;;;;;16.39;67.73;101003.94;4975827;28;20034;-54
2022/06/23 03:27:49;;;;;;;11.65;8.80;;;;;;;16.35;68.55;101007.09;4993248;28;20068;-54
2022/06/23 03:30:37;;;;;;;15.40;8.35;;;;;;;16.36;67.87;101004.25;5001767;28;20065;-55
2022/06/23 03:33:17;;;;;;;14.25;8.75;;;;;;;16.31;68.51;101011.91;4981766;28;20339;-53
2022/06/23 03:35:52;;;;;;;16.33;8.52;;;;;;;16.29;68.41;101027.31;4999342;28;20034;-54
2022/06/23 03:41:36;;;;;;;13.52;8.32;;;;;;;16.29;68.58;101027.31;4996186;28;20022;-55
2022/06/23 03:44:01;;;;;;;12.43;7.82;;;;;;;16.28;67.74;101026.44;5002153;28;20100;-53
2022/06/23 03:46:51;;;;;;;12.55;8.05;;;;;;;16.34;67.64;101026.84;4994666;28;20512;-56
2022/06/23 03:49:45;;;;;;;17.45;8.38;;;;;;;16.33;67.47;101026.00;4993942;28;20019;-54
2022/06/23 03:52:21;;;;;;;14.00;8.00;;;;;;;16.29;67.83;101029.97;4989415;28;20114;-54
2022/06/23 03:54:55;;;;;;;13.45;7.65;;;;;;;16.30;68.11;101033.50;4994637;28;20505;-53
2022/06/23 03:57:27;;;;;;;9.85;7.63;;;;;;;16.28;68.45;101033.66;4992072;28;20034;-53
2022/06/23 04:00:03;;;;;;;13.70;8.20;;;;;;;16.27;67.69;101022.09;4989664;28;20088;-54
2022/06/23 04:02:37;;;;;;;12.05;7.38;;;;;;;16.24;67.94;101025.06;4991345;28;20026;-54
2022/06/23 04:05:05;;;;;;;12.88;7.47;;;;;;;16.22;68.22;101021.69;4985935;28;20138;-53
2022/06/23 04:07:35;;;;;;;14.07;7.75;;;;;;;16.22;68.45;101029.75;4991172;28;20033;-54
2022/06/23 04:10:07;;;;;;;12.27;8.00;;;;;;;16.24;67.62;101024.22;4981877;28;20034;-53
2022/06/23 04:12:34;;;;;;;12.13;7.80;;;;;;;16.24;68.02;101026.91;4981908;28;20027;-53
2022/06/23 04:15:05;;;;;;;11.18;7.70;;;;;;;16.22;67.76;101023.53;4996725;28;20501;-54
2022/06/23 04:17:41;;;;;;;11.20;8.07;;;;;;;16.22;67.59;101023.53;4990754;28;20034;-54
2022/06/23 04:20:21;;;;;;;13.57;7.78;;;;;;;16.24;66.92;101014.34;4985715;28;20030;-53
2022/06/23 04:22:51;;;;;;;10.77;7.72;;;;;;;16.24;67.21;101002.78;4994049;28;20344;-54
2022/06/23 04:25:20;;;;;;;13.80;7.70;;;;;;;16.25;67.09;100999.09;4994402;28;20034;-53
2022/06/23 04:28:04;;;;;;;11.13;7.40;;;;;;;16.31;66.21;101006.53;4994709;28;20026;-55
2022/06/23 04:30:35;;;;;;;13.60;7.70;;;;;;;16.32;67.25;101015.41;4987651;28;20509;-54
2022/06/23 04:33:04;;;;;;;10.65;7.05;;;;;;;16.34;66.33;101022.34;4991029;28;20414;-53
2022/06/23 04:35:32;;;;;;;;;;;;;;;16.44;64.88;101023.09;4991246;28;20054;-54
2022/06/23 04:38:08;;;;;;;13.88;7.55;;;;;;;16.44;65.07;101031.16;4991245;28;20093;-54
2022/06/23 04:40:43;;;;;;;11.23;7.57;;;;;;;16.49;65.17;101027.16;4985712;28;20076;-54
2022/06/23 04:43:19;;;;;;;10.43;7.18;;;;;;;16.53;65.04;101025.88;4979545;28;20041;-55
2022/06/23 04:45:56;;;;;;;9.93;6.57;;;;;;;16.61;64.92;101029.47;4995477;28;20105;-54
2022/06/23 04:49:09;;;;;;;11.80;7.18;;;;;;;16.74;64.15;101021.06;4985893;28;20041;-54
2022/06/23 04:51:39;;;;;;;10.93;6.60;;;;;;;16.81;63.56;101019.44;4983333;28;20073;-54
2022/06/23 04:54:10;;;;;;;10.50;6.40;;;;;;;16.93;63.27;101019.22;4983765;28;20034;-55
2022/06/23 04:56:44;;;;;;;10.30;6.65;;;;;;;17.01;62.90;101014.75;4988167;28;20026;-53
2022/06/23 04:59:44;;;;;;;12.65;6.40;;;;;;;17.14;62.41;101018.91;4982497;28;20023;-55
2022/06/23 05:02:20;;;;;;;8.48;6.18;;;;;;;17.24;62.13;101014.28;4996109;28;20030;-55
2022/06/23 05:05:08;;;;;;;19.42;6.60;;;;;;;17.38;61.79;101023.59;4994883;28;20540;-54
2022/06/23 05:07:43;;;;;;;12.27;6.78;;;;;;;17.53;61.59;101024.69;4996485;28;20033;-54
2022/06/23 05:10:51;;;;;;;11.45;6.10;;;;;;;17.66;61.02;101015.38;4990129;28;20048;-54
2022/06/23 05:13:20;;;;;;;8.38;5.97;;;;;;;17.80;60.37;101019.28;4988853;28;20027;-55
2022/06/23 05:16:12;;;;;;;11.18;6.82;;;;;;;17.90;60.08;101020.91;4983945;28;20041;-54
2022/06/23 05:18:44;;;;;;;12.07;6.22;;;;;;;17.98;59.55;101017.38;4989655;28;20100;-55
2022/06/23 05:21:24;;;;;;;8.57;6.05;;;;;;;18.10;59.27;101024.16;4988127;28;20033;-54
2022/06/23 05:24:21;;;;;;;9.98;6.07;;;;;;;18.14;58.62;101022.00;4989721;28;20046;-54
2022/06/23 05:26:55;;;;;;;10.20;6.18;;;;;;;18.17;58.33;101018.13;4980018;28;20398;-56
2022/06/23 05:29:36;;;;;;;10.05;5.72;;;;;;;18.22;58.05;101019.34;4991884;28;20450;-55
2022/06/23 05:32:11;;;;;;;10.68;5.90;;;;;;;18.31;57.66;101023.72;4994610;28;20042;-56
2022/06/23 05:34:47;;;;;;;9.38;6.38;;;;;;;18.42;57.37;101024.44;4991920;28;20034;-55
2022/06/23 05:37:17;;;;;;;7.90;5.80;;;;;;;18.58;57.37;101024.44;4992929;28;20041;-56
2022/06/23 05:39:57;;;;;;;8.68;6.05;;;;;;;18.77;56.48;101023.31;4993795;28;20717;-55
2022/06/23 05:42:29;;;;;;;8.65;5.65;;;;;;;18.96;55.92;101016.78;4981570;28;20089;-55
2022/06/23 05:45:00;;;;;;;8.70;5.78;;;;;;;19.18;55.61;101017.09;4989524;28;20030;-54
2022/06/23 05:47:30;;;;;;;9.13;5.80;;;;;;;19.42;55.36;101013.53;4982412;28;20034;-56
2022/06/23 05:50:01;;;;;;;11.45;5.60;;;;;;;19.67;55.42;101018.84;4994206;28;20052;-54
2022/06/23 05:53:00;;;;;;;11.20;5.60;;;;;;;19.82;54.12;101025.25;4988659;28;20026;-55
2022/06/23 05:55:31;;;;;;;8.95;5.55;;;;;;;20.08;54.13;101014.16;4986791;28;20489;-56
2022/06/23 05:58:10;;;;;;;6.70;5.75;;;;;;;20.32;53.02;101017.78;4987133;28;20490;-56
2022/06/23 06:00:42;;;;;;;;;;;;;;;20.49;54.06;101022.03;4976711;28;20030;-55
2022/06/23 06:03:34;;;;;;;11.30;5.65;;;;;;;20.73;51.81;101020.22;4983149;28;19920;-56
2022/06/23 06:06:01;;;;;;;11.40;5.63;;;;;;;21.01;50.55;101011.56;4981618;28;20042;-55
2022/06/23 06:08:34;;;;;;;11.10;5.70;;;;;;;21.21;50.49;101015.41;4982795;28;20102;-55
2022/06/23 06:11:01;;;;;;;7.72;5.60;;;;;;;21.41;49.77;101009.50;4986379;28;20027;-55
2022/06/23 06:13:35;;;;;;;13.45;5.53;;;;;;;21.59;49.35;101012.69;4992358;28;20057;-56
2022/06/23 06:16:04;;;;;;;14.57;6.13;;;;;;;21.81;48.13;101018.19;4986109;28;20160;-55
2022/06/23 06:18:31;;;;;;;;;;;;;;;21.95;50.65;101006.53;4991939;28;20027;-56
2022/06/23 06:21:03;;;;;;;11.93;5.65;;;;;;;22.19;48.99;101009.94;4988220;28;19910;-56
2022/06/23 06:23:41;;;;;;;12.43;5.50;;;;;;;22.44;47.85;101004.22;4980295;28;20045;-57
2022/06/23 06:26:12;;;;;;;8.40;5.45;;;;;;;22.57;46.59;100998.09;4991660;28;20045;-57
2022/06/23 06:28:37;;;;;;;11.93;4.97;;;;;;;22.72;47.67;101010.53;4981926;28;20576;-56
2022/06/23 06:31:23;;;;;;;11.18;5.05;;;;;;;22.99;47.38;101018.06;4985645;28;20117;-55
2022/06/23 06:33:56;;;;;;;9.77;5.03;;;;;;;23.23;45.39;101017.66;4980252;28;20034;-56
2022/06/23 06:36:27;;;;;;;13.40;5.38;;;;;;;23.41;45.28;101016.31;4982973;28;20151;-56
2022/06/23 06:38:57;;;;;;;14.82;5.10;;;;;;;23.67;44.33;101015.66;4979803;28;20050;-57
2022/06/23 06:41:23;;;;;;;13.40;5.30;;;;;;;23.81;43.91;101011.13;4985086;28;20038;-56
2022/06/23 06:43:48;;;;;;;7.93;4.90;;;;;;;23.91;44.66;101013.50;4987282;28;20088;-56
2022/06/23 06:46:13;;;;;;;10.07;4.65;;;;;;;24.15;43.89;101006.72;4989848;28;20114;-56
2022/06/23 06:48:43;;;;;;;13.77;5.15;;;;;;;24.44;43.55;101005.53;4991699;28;20022;-56
2022/06/23 06:51:16;;;;;;;7.38;4.68;;;;;;;24.61;43.59;101005.19;4991089;28;20466;-56
2022/06/23 06:53:45;;;;;;;7.30;4.32;;;;;;;24.84;43.16;101011.06;4994391;28;20031;-57
2022/06/23 06:56:25;;;;;;;;;;;;;;;25.09;44.57;101014.00;4993517;28;20454;-57
2022/06/23 06:59:11;;;;;;;8.85;4.95;;;;;;;25.25;42.58;101017.34;4990421;28;19965;-57
2022/06/23 07:01:39;;;;;;;9.05;4.75;;;;;;;25.54;41.48;101013.34;4993274;28;20041;-57
2022/06/23 07:04:04;;;;;;;13.97;4.73;;;;;;;25.82;40.57;101020.38;4990659;28;20047;-56
2022/06/23 07:06:41;;;;;;;11.00;5.25;;;;;;;25.93;40.87;101024.31;4993034;28;20379;-55
2022/06/23 07:09:26;;;;;;;9.82;4.88;;;;;;;26.13;41.00;101024.25;4992742;28;20105;-56
2022/06/23 07:12:04;;;;;;;8.93;4.47;;;;;;;26.34;40.70;101025.84;4991441;28;20035;-56
2022/06/23 07:15:05;;;;;;;13.57;5.40;;;;;;;26.47;41.70;101020.31;4990537;28;20035;-56
2022/06/23 07:17:37;;;;;;;9.25;4.78;;;;;;;26.62;39.97;101014.56;4964231;28;20039;-57
2022/06/23 07:20:06;;;;;;;12.90;4.80;;;;;;;26.89;39.34;101011.66;4976130;28;20031;-57
2022/06/23 07:22:42;;;;;;;15.73;4.93;;;;;;;26.98;39.56;101006.78;4995038;28;20034;-55
2022/06/23 07:25:22;;;;;;;12.05;4.72;;;;;;;27.27;40.26;101002.53;4992771;28;20037;-55
2022/06/23 07:27:55;;;;;;;10.30;4.30;;;;;;;27.47;39.72;101005.91;4993985;28;20035;-56
2022/06/23 07:30:38;;;;;;;9.77;4.20;;;;;;;27.90;40.38;101006.91;4988957;28;20053;-57
2022/06/23 07:33:14;;;;;;;7.18;4.63;;;;;;;28.07;39.47;101001.69;4993747;28;20034;-56
2022/06/23 07:35:52;;;;;;;9.80;4.78;;;;;;;28.17;39.42;100998.41;4988780;28;20038;-57
2022/06/23 07:38:36;;;;;;;9.43;4.95;;;;;;;28.36;39.67;101004.63;4992545;28;20068;-57
2022/06/23 07:41:21;;;;;;;10.75;4.93;;;;;;;28.63;39.44;101004.28;4987245;28;20118;-56
2022/06/23 07:44:07;;;;;;;11.45;4.93;;;;;;;28.85;38.29;100999.94;4986270;28;20034;-57
2022/06/23 07:46:35;;;;;;;9.15;4.50;;;;;;;28.97;38.90;101000.78;4988558;28;20077;-56
2022/06/23 07:49:01;;;;;;;8.13;4.60;;;;;;;29.22;38.22;101002.47;4991550;28;20113;-57
2022/06/23 07:51:26;;;;;;;11.73;4.85;;;;;;;29.45;37.71;100995.34;4992336;28;20165;-56
2022/06/23 07:53:54;;;;;;;10.70;4.53;;;;;;;29.74;38.60;100998.13;4990837;28;20026;-57
2022/06/23 07:56:24;;;;;;;6.95;4.80;;;;;;;29.93;37.22;100996.06;4991697;28;20026;-57
2022/06/23 07:58:54;;;;;;;13.52;4.68;;;;;;;30.23;37.46;101004.09;4988666;28;20037;-57
2022/06/23 08:01:28;;;;;;;10.15;4.78;;;;;;;30.37;37.44;101002.72;4992579;28;20113;-57
2022/06/23 08:04:07;;;;;;;11.35;4.25;;;;;;;30.49;38.57;101001.84;4989856;28;20113;-57
2022/06/23 08:06:35;;;;;;;9.55;4.80;;;;;;;30.65;37.35;101000.19;4993174;28;20030;-56
2022/06/23 08:09:04;;;;;;;11.00;4.70;;;;;;;30.86;36.82;100993.97;4993967;28;20054;-57
2022/06/23 08:14:22;;;;;;;7.15;4.18;;;;;;;31.09;37.14;100994.91;4991951;28;20065;-56
2022/06/23 08:16:51;;;;;;;9.35;4.68;;;;;;;31.09;36.29;100997.63;4983848;28;20553;-55
2022/06/23 08:19:39;;;;;;;14.75;4.53;;;;;;;31.43;36.63;100989.38;4989025;28;20033;-56
2022/06/23 08:22:11;;;;;;;11.93;4.55;;;;;;;31.45;35.38;100992.69;4991002;28;20366;-56
2022/06/23 08:24:38;;;;;;;9.23;4.20;;;;;;;31.48;35.66;100983.94;4980833;28;20478;-57
2022/06/23 08:27:13;;;;;;;18.05;4.47;;;;;;;31.60;36.10;100979.19;4985737;28;20030;-57
2022/06/23 08:29:53;;;;;;;8.13;3.70;;;;;;;31.54;36.54;100982.94;4989019;28;20038;-57
2022/06/23 08:32:20;;;;;;;7.90;3.97;;;;;;;31.61;36.15;100988.22;4983818;28;20031;-55
2022/06/23 08:35:13;;;;;;;9.85;3.72;;;;;;;31.81;36.09;100983.00;4982995;28;20050;-56
2022/06/23 08:37:50;;;;;;;10.38;4.03;;;;;;;32.14;35.63;100981.19;4986946;28;20030;-57
2022/06/23 08:40:22;;;;;;;10.18;4.03;;;;;;;32.30;34.78;100979.44;4985865;28;20032;-56
2022/06/23 08:43:25;;;;;;;9.90;3.53;;;;;;;32.60;36.10;100978.88;4986423;28;20031;-57
2022/06/23 08:45:53;;;;;;;8.75;3.92;;;;;;;32.61;34.42;100979.72;4968183;28;20379;-56
2022/06/23 08:48:27;;;;;;;10.88;4.22;;;;;;;32.66;34.70;100988.06;4978842;28;20049;-55
2022/06/23 08:51:32;;;;;;;8.60;3.20;;;;;;;33.08;35.11;100981.75;4976388;28;20031;-56
2022/06/23 08:54:15;;;;;;;10.20;3.58;;;;;;;33.13;33.96;100983.72;4962941;28;20038;-56
2022/06/23 08:56:50;;;;;;;13.32;4.07;;;;;;;33.55;33.72;100983.69;4985797;28;20357;-55
2022/06/23 08:59:32;;;;;;;7.43;3.30;;;;;;;33.54;33.61;100973.78;4979870;28;20030;-56
2022/06/23 09:02:12;;;;;;;7.93;3.50;;;;;;;33.96;33.70;100976.69;4991587;28;20041;-56
2022/06/23 09:05:04;;;;;;;10.98;3.33;;;;;;;34.15;31.96;100969.59;4989777;28;20061;-56
2022/06/23 09:08:02;;;;;;;11.23;3.10;;;;;;;34.15;32.52;100968.78;4960470;28;20501;-57
2022/06/23 09:10:46;;;;;;;;;;;;;;;34.49;33.92;100969.09;4982785;28;20031;-55
2022/06/23 09:13:46;;;;;;;10.15;3.35;;;;;;;34.42;32.15;100966.59;4993364;28;19921;-56
2022/06/23 09:16:38;;;;;;;12.32;2.88;;;;;;;34.82;32.53;100964.16;4984847;28;20053;-57
2022/06/23 09:19:24;;;;;;;12.13;2.60;;;;;;;34.88;31.89;100970.50;4993348;28;20069;-56
2022/06/23 09:22:08;;;;;;;9.80;2.97;;;;;;;34.89;31.69;100963.88;4981089;28;20073;-56
2022/06/23 09:24:47;;;;;;;10.38;3.10;;;;;;;34.82;32.10;100967.75;4991244;28;20097;-55
2022/06/23 09:27:34;;;;;;;12.10;2.95;;;;;;;34.95;33.25;100962.75;4991792;28;20498;-55
2022/06/23 09:30:17;;;;;;;14.27;3.58;;;;;;;35.04;33.45;100958.31;4992394;28;20096;-55
2022/06/23 09:32:53;;;;;;;9.90;2.88;;;;;;;35.34;32.87;100956.59;4992517;28;20033;-55
2022/06/23 09:35:24;;;;;;;7.20;3.08;;;;;;;35.34;31.41;100956.59;4990246;28;20489;-56
2022/06/23 09:38:04;;;;;;;10.35;3.10;;;;;;;35.42;31.33;100953.25;4988614;28;20437;-56
2022/06/23 09:40:57;;;;;;;12.27;3.42;;;;;;;35.57;32.54;100961.50;4993595;28;20039;-56
2022/06/23 09:43:48;;;;;;;9.55;3.40;;;;;;;35.73;32.25;100953.97;4986073;28;20039;-56
2022/06/23 09:46:38;;;;;;;12.88;3.30;;;;;;;35.88;31.42;100949.50;4978713;28;20057;-57
2022/06/23 09:49:22;;;;;;;7.15;3.40;;;;;;;35.96;31.13;100953.56;4989357;28;20030;-57
2022/06/23 09:52:23;;;;;;;8.02;3.45;;;;;;;36.30;31.07;100950.88;4975349;28;20090;-57
2022/06/23 09:55:01;;;;;;;10.45;3.80;;;;;;;36.17;29.85;100955.09;4954327;28;20553;-57
2022/06/23 09:57:43;;;;;;;12.65;3.65;;;;;;;36.44;30.83;100946.34;4989560;28;20498;-56
2022/06/23 10:00:32;;;;;;;8.48;3.08;;;;;;;36.59;31.04;100950.94;4991066;28;20045;-56
2022/06/23 10:03:15;;;;;;;7.90;3.20;;;;;;;36.22;30.34;100946.78;4954835;28;20043;-57
2022/06/23 10:05:59;;;;;;;10.07;3.70;;;;;;;36.39;31.16;100942.78;4991826;28;20113;-56
2022/06/23 10:08:52;;;;;;;11.93;3.60;;;;;;;36.47;31.24;100947.69;4987113;28;20035;-55
2022/06/23 10:11:43;;;;;;;8.40;3.80;;;;;;;36.66;30.48;100943.09;4997692;28;20505;-54
2022/06/23 10:14:21;;;;;;;11.32;3.83;;;;;;;36.26;31.05;100945.13;4985797;28;20022;-55
2022/06/23 10:17:19;;;;;;;9.65;3.33;;;;;;;36.20;31.21;100937.13;4989053;28;20026;-56
2022/06/23 10:20:16;;;;;;;11.80;3.53;;;;;;;36.10;31.00;100940.78;4988440;28;20027;-56
2022/06/23 10:23:02;;;;;;;11.23;3.90;;;;;;;35.75;32.09;100929.66;4993556;28;20088;-56
2022/06/23 10:26:12;;;;;;;10.25;3.38;;;;;;;35.63;32.20;100931.91;4996151;28;20034;-56
2022/06/23 10:29:02;;;;;;;7.88;3.40;;;;;;;35.99;31.81;100930.88;4935534;29;20165;-55
2022/06/23 10:31:52;;;;;;;10.07;3.05;;;;;;;35.80;31.15;100936.28;4986607;28;20046;-55
2022/06/23 10:34:50;;;;;;;8.77;2.70;;;;;;;35.65;30.84;100928.88;4993643;28;20099;-56
2022/06/23 10:37:49;;;;;;;8.35;2.80;;;;;;;36.16;30.99;100924.97;4988573;28;20132;-55
2022/06/23 10:40:38;;;;;;;9.45;2.80;;;;;;;35.75;29.73;100929.66;4995469;28;20038;-55
2022/06/23 10:43:24;;;;;;;12.20;3.38;;;;;;;36.15;30.26;100920.56;4995616;28;20508;-54
2022/06/23 10:45:55;;;;;;;12.52;2.80;;;;;;;35.87;29.64;100920.19;4990314;28;20443;-55
2022/06/23 10:48:42;;;;;;;12.20;3.08;;;;;;;35.98;29.46;100916.25;4999640;28;20034;-55
2022/06/23 10:51:45;;;;;;;8.33;2.70;;;;;;;36.19;29.17;100911.41;4982640;28;20137;-55
2022/06/23 10:54:14;;;;;;;6.07;2.80;;;;;;;36.05;29.49;100908.44;4988218;28;20035;-55
2022/06/23 10:57:17;;;;;;;8.00;3.13;;;;;;;36.18;29.54;100906.16;4993573;28;20038;-55
2022/06/23 11:00:01;;;;;;;8.63;3.97;;;;;;;36.34;30.01;100907.72;4999263;28;20038;-55
2022/06/23 11:03:04;;;;;;;11.15;3.20;;;;;;;36.49;29.32;100909.53;4999256;28;20042;-56
2022/06/23 11:05:53;;;;;;;11.38;3.03;;;;;;;36.12;29.16;100902.59;4993320;28;20180;-56
2022/06/23 11:08:48;;;;;;;12.00;2.70;;;;;;;36.20;28.99;100906.69;4996541;28;20070;-55
2022/06/23 11:11:33;;;;;;;12.00;3.42;;;;;;;36.18;30.11;100903.41;4977360;28;20109;-55
2022/06/23 11:14:21;;;;;;;9.05;3.22;;;;;;;36.40;30.13;100900.19;4990635;28;20409;-54
2022/06/23 11:17:12;;;;;;;10.25;3.35;;;;;;;36.00;29.83;100891.91;4996547;28;20034;-56
2022/06/23 11:19:59;;;;;;;11.60;3.45;;;;;;;35.73;29.85;100890.44;4996188;28;20058;-55
2022/06/23 11:22:57;;;;;;;10.60;3.38;;;;;;;36.25;30.40;100888.13;4995439;28;20030;-56
2022/06/23 11:25:51;;;;;;;8.82;2.70;;;;;;;36.51;30.26;100890.69;4978523;28;20388;-56
2022/06/23 11:28:24;;;;;;;8.32;2.95;;;;;;;36.80;28.78;100887.09;4990995;28;20121;-57
2022/06/23 11:31:02;;;;;;;9.40;3.30;;;;;;;36.63;28.37;100898.59;4989407;28;20518;-57
2022/06/23 11:33:30;;;;;;;10.30;3.53;;;;;;;36.64;28.23;100897.47;4972868;28;20026;-55
2022/06/23 11:36:09;;;;;;;11.95;3.92;;;;;;;36.40;29.44;100895.47;4988427;28;20045;-55
2022/06/23 11:38:44;;;;;;;18.60;3.83;;;;;;;36.12;30.64;100902.59;4995140;28;20030;-55
2022/06/23 11:41:24;;;;;;;12.25;3.65;;;;;;;36.16;31.12;100900.91;4995676;28;20050;-56
2022/06/23 11:44:08;;;;;;;11.93;3.25;;;;;;;36.36;29.78;100893.56;4980618;28;20569;-55
2022/06/23 11:46:38;;;;;;;9.60;3.05;;;;;;;36.38;30.61;100891.38;4987672;28;20138;-55
2022/06/23 11:49:31;;;;;;;9.30;3.10;;;;;;;36.57;30.36;100886.75;4984572;28;20027;-56
2022/06/23 11:52:22;;;;;;;13.48;3.70;;;;;;;36.55;29.19;100872.38;4989351;28;20034;-56
2022/06/23 11:55:25;;;;;;;8.98;3.47;;;;;;;36.57;30.38;100875.66;4982060;28;20030;-56
2022/06/23 11:58:13;;;;;;;7.18;3.00;;;;;;;36.59;30.20;100878.16;4987103;28;20031;-57
2022/06/23 12:01:11;;;;;;;8.52;3.22;;;;;;;36.77;30.39;100865.53;4968838;28;20076;-56
2022/06/23 12:04:21;;;;;;;9.93;3.60;;;;;;;36.94;30.18;100863.16;4987100;28;20527;-57
2022/06/23 12:07:10;;;;;;;12.48;3.05;;;;;;;36.52;29.55;100867.44;4991592;28;20030;-57
2022/06/23 12:09:38;;;;;;;9.07;3.00;;;;;;;36.45;30.54;100864.19;4992251;28;20042;-55
2022/06/23 12:12:06;;;;;;;11.82;3.13;;;;;;;36.54;30.09;100872.66;4991568;28;20034;-55
2022/06/23 12:14:32;;;;;;;11.60;3.17;;;;;;;36.79;30.11;100869.69;4985439;28;20026;-56
2022/06/23 12:17:17;;;;;;;9.85;3.17;;;;;;;36.58;30.20;100871.81;4988111;28;20037;-55
2022/06/23 12:19:51;;;;;;;11.45;3.50;;;;;;;36.33;29.45;100864.56;4986455;28;20413;-56
2022/06/23 12:22:30;;;;;;;9.63;3.15;;;;;;;36.40;29.89;100875.31;4987426;28;20035;-56
2022/06/23 12:25:19;;;;;;;9.82;3.05;;;;;;;36.14;29.48;100869.97;4979075;28;20031;-55
2022/06/23 12:28:20;;;;;;;8.88;2.70;;;;;;;36.35;30.23;100867.06;4971629;28;20157;-56
2022/06/23 12:30:53;;;;;;;9.57;2.88;;;;;;;36.38;30.61;100863.72;4981579;28;20046;-57